Nearby METAR Reports

 

EGSS - Stansted Airport, United Kingdom
Distance from station: NW 15mi, 24km
Updated: 15/09/2019 08:20
Clear
Clear
 Wind from SW
Wind: SW 5 mph , 7 km/h
Temperature: 12°C
Dew Point: 9°C
Humidity: 82%
Barometer: 1024 hPa
Clouds: Clear
Visibility: 6 miles , 10 km
2019/09/15 07:20 EGSS 150720Z AUTO 22004KT 180V260 9999 NCD 12/09 Q1024
EGMC - Southend-On-Sea, United Kingdom
Distance from station: SE 15mi, 25km
Updated: 15/09/2019 08:20
Clear
Clear
 Wind from SW
Wind: SW 6 mph , 9 km/h
Temperature: 13°C
Dew Point: 11°C
Humidity: 88%
Barometer: 1025 hPa
Summary: Clear
Visibility: greater than 7 miles , 10 km
2019/09/15 07:20 EGMC 150720Z 23005KT CAVOK 13/11 Q1025
 
EGLC - London City Airp, United Kingdom
Distance from station: SW 24mi, 39km
Updated: 15/09/2019 08:20
Clear
Clear
 Wind from SW
Wind: SW 8 mph , 13 km/h
Temperature: 14°C
Dew Point: 10°C
Humidity: 77%
Barometer: 1025 hPa
Clouds: Clear
Visibility: 6 miles , 10 km
2019/09/15 07:20 EGLC 150720Z AUTO 23007KT 9999 NCD 14/10 Q1025
EGUW - Wattisham Raf, United Kingdom
Distance from station: NE 34mi, 54km
Updated: 15/09/2019 07:50
Clear
Clear
 Wind from WSW
Wind: WSW 7 mph , 11 km/h
Temperature: 11°C
Dew Point: 8°C
Humidity: 82%
Barometer: 1024 hPa
Clouds: Clear
Visibility: 6 miles , 10 km
2019/09/15 06:50 EGUW 150650Z AUTO 25006KT 9999 NCD 11/08 Q1024
 
EGGW - Luton Airport, United Kingdom
Distance from station: WNW 37mi, 59km
Updated: 15/09/2019 08:20
Clear
Clear
 Wind from W
Wind: W 9 mph , 15 km/h
Temperature: 15°C
Dew Point: 8°C
Humidity: 63%
Barometer: 1024 hPa
Clouds: Clear
Visibility: 6 miles , 10 km
2019/09/15 07:20 EGGW 150720Z AUTO 27008KT 9999 NCD 15/08 Q1024
EGWU - Northolt Raf, United Kingdom
Distance from station: WSW 40mi, 64km
Updated: 15/09/2019 07:50
Clear
Clear
 Wind from SW
Wind: SW 1 mph , 2 km/h
Temperature: 8°C
Dew Point: 8°C
Humidity: 100%
Barometer: 1025 hPa
Summary: Clear
Visibility: greater than 7 miles , 10 km
2019/09/15 06:50 EGWU 150650Z 23001KT CAVOK 08/08 Q1025 NOSIG RMK BLU BLU